sensor_id;sensor_type;location;lat;lon;timestamp;P1;durP1;ratioP1;P2;durP2;ratioP2
67715;SDS011;54508;43.238;25.306;2023-02-01T00:01:17;2.63;;;2.15;;
67715;SDS011;54508;43.238;25.306;2023-02-01T00:03:42;4.13;;;2.33;;
67715;SDS011;54508;43.238;25.306;2023-02-01T00:06:08;3.77;;;2.30;;
67715;SDS011;54508;43.238;25.306;2023-02-01T00:08:33;3.17;;;2.10;;
67715;SDS011;54508;43.238;25.306;2023-02-01T00:11:00;3.00;;;1.87;;
67715;SDS011;54508;43.238;25.306;2023-02-01T00:13:29;4.03;;;2.20;;
67715;SDS011;54508;43.238;25.306;2023-02-01T00:16:06;3.28;;;2.00;;
67715;SDS011;54508;43.238;25.306;2023-02-01T00:18:34;3.80;;;2.20;;
67715;SDS011;54508;43.238;25.306;2023-02-01T00:21:00;2.47;;;2.20;;
67715;SDS011;54508;43.238;25.306;2023-02-01T00:23:26;3.80;;;2.13;;
67715;SDS011;54508;43.238;25.306;2023-02-01T00:25:51;2.67;;;2.00;;
67715;SDS011;54508;43.238;25.306;2023-02-01T00:28:18;3.08;;;2.28;;
67715;SDS011;54508;43.238;25.306;2023-02-01T00:30:43;3.10;;;1.90;;
67715;SDS011;54508;43.238;25.306;2023-02-01T00:33:09;3.92;;;2.03;;
67715;SDS011;54508;43.238;25.306;2023-02-01T00:35:34;3.28;;;1.60;;
67715;SDS011;54508;43.238;25.306;2023-02-01T00:38:00;5.63;;;1.80;;
67715;SDS011;54508;43.238;25.306;2023-02-01T00:40:26;2.80;;;1.63;;
67715;SDS011;54508;43.238;25.306;2023-02-01T00:42:52;2.10;;;1.65;;
67715;SDS011;54508;43.238;25.306;2023-02-01T00:45:18;2.63;;;1.83;;
67715;SDS011;54508;43.238;25.306;2023-02-01T00:47:43;2.30;;;1.75;;
67715;SDS011;54508;43.238;25.306;2023-02-01T00:50:09;2.70;;;1.60;;
67715;SDS011;54508;43.238;25.306;2023-02-01T00:52:35;2.63;;;1.70;;
67715;SDS011;54508;43.238;25.306;2023-02-01T00:55:00;2.20;;;1.70;;
67715;SDS011;54508;43.238;25.306;2023-02-01T00:57:26;2.83;;;1.90;;
67715;SDS011;54508;43.238;25.306;2023-02-01T00:59:51;3.03;;;2.08;;
67715;SDS011;54508;43.238;25.306;2023-02-01T01:02:17;2.33;;;2.00;;
67715;SDS011;54508;43.238;25.306;2023-02-01T01:04:42;2.50;;;1.80;;
67715;SDS011;54508;43.238;25.306;2023-02-01T01:07:08;3.30;;;1.80;;
67715;SDS011;54508;43.238;25.306;2023-02-01T01:09:33;3.20;;;1.67;;
67715;SDS011;54508;43.238;25.306;2023-02-01T01:11:59;2.07;;;1.67;;
67715;SDS011;54508;43.238;25.306;2023-02-01T01:14:28;2.47;;;1.55;;
67715;SDS011;54508;43.238;25.306;2023-02-01T01:16:54;3.10;;;1.95;;
67715;SDS011;54508;43.238;25.306;2023-02-01T01:19:19;2.23;;;1.67;;
67715;SDS011;54508;43.238;25.306;2023-02-01T01:21:45;2.33;;;1.63;;
67715;SDS011;54508;43.238;25.306;2023-02-01T01:24:10;2.28;;;1.75;;
67715;SDS011;54508;43.238;25.306;2023-02-01T01:26:36;3.10;;;1.80;;
67715;SDS011;54508;43.238;25.306;2023-02-01T01:29:02;2.93;;;1.80;;
67715;SDS011;54508;43.238;25.306;2023-02-01T01:31:28;3.50;;;1.92;;
67715;SDS011;54508;43.238;25.306;2023-02-01T01:33:55;2.22;;;1.80;;
67715;SDS011;54508;43.238;25.306;2023-02-01T01:36:22;2.92;;;1.95;;
67715;SDS011;54508;43.238;25.306;2023-02-01T01:38:48;2.53;;;1.63;;
67715;SDS011;54508;43.238;25.306;2023-02-01T01:41:16;2.63;;;1.70;;
67715;SDS011;54508;43.238;25.306;2023-02-01T01:44:05;2.28;;;1.80;;
67715;SDS011;54508;43.238;25.306;2023-02-01T01:46:34;1.85;;;1.65;;
67715;SDS011;54508;43.238;25.306;2023-02-01T01:51:28;2.77;;;1.80;;
67715;SDS011;54508;43.238;25.306;2023-02-01T01:54:06;3.53;;;1.73;;
67715;SDS011;54508;43.238;25.306;2023-02-01T01:56:37;2.55;;;1.77;;
67715;SDS011;54508;43.238;25.306;2023-02-01T01:59:03;2.73;;;1.83;;
67715;SDS011;54508;43.238;25.306;2023-02-01T02:01:30;2.30;;;1.90;;
67715;SDS011;54508;43.238;25.306;2023-02-01T02:03:56;2.17;;;1.80;;
67715;SDS011;54508;43.238;25.306;2023-02-01T02:08:56;2.25;;;1.73;;
67715;SDS011;54508;43.238;25.306;2023-02-01T02:11:22;1.93;;;1.70;;
67715;SDS011;54508;43.238;25.306;2023-02-01T02:13:51;2.20;;;1.70;;
67715;SDS011;54508;43.238;25.306;2023-02-01T02:24:33;2.15;;;1.60;;
67715;SDS011;54508;43.238;25.306;2023-02-01T02:27:05;1.70;;;1.30;;
67715;SDS011;54508;43.238;25.306;2023-02-01T02:35:30;3.42;;;1.70;;
67715;SDS011;54508;43.238;25.306;2023-02-01T02:38:25;3.95;;;2.03;;
67715;SDS011;54508;43.238;25.306;2023-02-01T02:41:08;3.70;;;1.67;;
67715;SDS011;54508;43.238;25.306;2023-02-01T02:43:59;2.17;;;1.52;;
67715;SDS011;54508;43.238;25.306;2023-02-01T02:46:46;2.75;;;1.70;;
67715;SDS011;54508;43.238;25.306;2023-02-01T02:49:43;3.70;;;1.67;;
67715;SDS011;54508;43.238;25.306;2023-02-01T02:52:36;2.28;;;1.70;;
67715;SDS011;54508;43.238;25.306;2023-02-01T02:55:24;1.85;;;1.40;;
67715;SDS011;54508;43.238;25.306;2023-02-01T02:57:52;2.67;;;1.90;;
67715;SDS011;54508;43.238;25.306;2023-02-01T03:00:37;2.17;;;1.60;;
67715;SDS011;54508;43.238;25.306;2023-02-01T03:03:21;2.70;;;1.88;;
67715;SDS011;54508;43.238;25.306;2023-02-01T03:06:08;2.80;;;1.95;;
67715;SDS011;54508;43.238;25.306;2023-02-01T03:08:38;2.00;;;1.80;;
67715;SDS011;54508;43.238;25.306;2023-02-01T03:11:10;2.90;;;1.95;;
67715;SDS011;54508;43.238;25.306;2023-02-01T03:13:39;2.75;;;1.85;;
67715;SDS011;54508;43.238;25.306;2023-02-01T03:16:28;3.17;;;1.63;;
67715;SDS011;54508;43.238;25.306;2023-02-01T03:19:00;4.53;;;1.70;;
67715;SDS011;54508;43.238;25.306;2023-02-01T03:21:38;3.28;;;1.70;;
67715;SDS011;54508;43.238;25.306;2023-02-01T03:24:10;3.55;;;1.92;;
67715;SDS011;54508;43.238;25.306;2023-02-01T03:26:58;3.70;;;2.00;;
67715;SDS011;54508;43.238;25.306;2023-02-01T03:32:43;3.88;;;1.70;;
67715;SDS011;54508;43.238;25.306;2023-02-01T03:38:12;2.65;;;1.67;;
67715;SDS011;54508;43.238;25.306;2023-02-01T03:41:08;2.60;;;2.10;;
67715;SDS011;54508;43.238;25.306;2023-02-01T03:46:43;3.28;;;1.73;;
67715;SDS011;54508;43.238;25.306;2023-02-01T03:49:13;2.28;;;1.70;;
67715;SDS011;54508;43.238;25.306;2023-02-01T03:52:01;2.30;;;1.77;;
67715;SDS011;54508;43.238;25.306;2023-02-01T03:54:28;3.58;;;1.80;;
67715;SDS011;54508;43.238;25.306;2023-02-01T03:56:55;2.97;;;1.80;;
67715;SDS011;54508;43.238;25.306;2023-02-01T03:59:22;3.10;;;1.77;;
67715;SDS011;54508;43.238;25.306;2023-02-01T04:01:48;5.15;;;1.92;;
67715;SDS011;54508;43.238;25.306;2023-02-01T04:04:14;2.85;;;1.83;;
67715;SDS011;54508;43.238;25.306;2023-02-01T04:06:48;4.93;;;1.80;;
67715;SDS011;54508;43.238;25.306;2023-02-01T04:09:14;2.80;;;1.80;;
67715;SDS011;54508;43.238;25.306;2023-02-01T04:11:39;3.67;;;1.85;;
67715;SDS011;54508;43.238;25.306;2023-02-01T04:14:05;2.93;;;2.00;;
67715;SDS011;54508;43.238;25.306;2023-02-01T04:16:31;3.27;;;2.00;;
67715;SDS011;54508;43.238;25.306;2023-02-01T04:18:57;2.65;;;1.92;;
67715;SDS011;54508;43.238;25.306;2023-02-01T04:21:23;2.13;;;1.92;;
67715;SDS011;54508;43.238;25.306;2023-02-01T04:23:52;4.32;;;2.00;;
67715;SDS011;54508;43.238;25.306;2023-02-01T04:26:18;3.20;;;2.20;;
67715;SDS011;54508;43.238;25.306;2023-02-01T04:28:44;3.57;;;1.80;;
67715;SDS011;54508;43.238;25.306;2023-02-01T04:31:12;2.42;;;1.90;;
67715;SDS011;54508;43.238;25.306;2023-02-01T04:33:41;4.32;;;2.35;;
67715;SDS011;54508;43.238;25.306;2023-02-01T04:36:06;3.13;;;2.03;;
67715;SDS011;54508;43.238;25.306;2023-02-01T04:38:32;3.42;;;2.08;;
67715;SDS011;54508;43.238;25.306;2023-02-01T04:40:58;3.10;;;2.03;;
67715;SDS011;54508;43.238;25.306;2023-02-01T04:43:24;2.63;;;1.73;;
67715;SDS011;54508;43.238;25.306;2023-02-01T04:45:49;2.57;;;1.80;;
67715;SDS011;54508;43.238;25.306;2023-02-01T04:48:16;2.60;;;2.10;;
67715;SDS011;54508;43.238;25.306;2023-02-01T04:50:43;2.55;;;1.65;;
67715;SDS011;54508;43.238;25.306;2023-02-01T04:53:11;4.05;;;2.10;;
67715;SDS011;54508;43.238;25.306;2023-02-01T04:55:36;3.17;;;2.30;;
67715;SDS011;54508;43.238;25.306;2023-02-01T04:58:01;3.57;;;1.90;;
67715;SDS011;54508;43.238;25.306;2023-02-01T05:00:27;2.77;;;2.23;;
67715;SDS011;54508;43.238;25.306;2023-02-01T05:02:52;5.60;;;2.20;;
67715;SDS011;54508;43.238;25.306;2023-02-01T05:05:18;2.57;;;2.33;;
67715;SDS011;54508;43.238;25.306;2023-02-01T05:07:43;2.83;;;2.40;;
67715;SDS011;54508;43.238;25.306;2023-02-01T05:10:10;3.00;;;1.80;;
67715;SDS011;54508;43.238;25.306;2023-02-01T05:12:36;3.27;;;2.20;;
67715;SDS011;54508;43.238;25.306;2023-02-01T05:15:20;2.92;;;2.10;;
67715;SDS011;54508;43.238;25.306;2023-02-01T05:17:45;4.70;;;1.93;;
67715;SDS011;54508;43.238;25.306;2023-02-01T05:20:11;3.27;;;2.20;;
67715;SDS011;54508;43.238;25.306;2023-02-01T05:22:36;3.40;;;1.93;;
67715;SDS011;54508;43.238;25.306;2023-02-01T05:25:02;2.65;;;1.83;;
67715;SDS011;54508;43.238;25.306;2023-02-01T05:27:28;2.63;;;1.80;;
67715;SDS011;54508;43.238;25.306;2023-02-01T05:29:55;3.08;;;1.95;;
67715;SDS011;54508;43.238;25.306;2023-02-01T05:32:21;2.50;;;1.97;;
67715;SDS011;54508;43.238;25.306;2023-02-01T05:34:46;2.40;;;1.70;;
67715;SDS011;54508;43.238;25.306;2023-02-01T05:37:11;3.47;;;1.90;;
67715;SDS011;54508;43.238;25.306;2023-02-01T05:39:37;2.47;;;1.87;;
67715;SDS011;54508;43.238;25.306;2023-02-01T05:42:02;3.50;;;2.27;;
67715;SDS011;54508;43.238;25.306;2023-02-01T05:44:28;2.80;;;2.10;;
67715;SDS011;54508;43.238;25.306;2023-02-01T05:46:53;3.10;;;2.07;;
67715;SDS011;54508;43.238;25.306;2023-02-01T05:49:19;3.83;;;2.13;;
67715;SDS011;54508;43.238;25.306;2023-02-01T05:51:44;4.47;;;2.10;;
67715;SDS011;54508;43.238;25.306;2023-02-01T05:54:10;2.40;;;1.87;;
67715;SDS011;54508;43.238;25.306;2023-02-01T05:56:35;2.55;;;1.85;;
67715;SDS011;54508;43.238;25.306;2023-02-01T05:59:01;4.40;;;2.20;;
67715;SDS011;54508;43.238;25.306;2023-02-01T06:01:27;3.30;;;1.85;;
67715;SDS011;54508;43.238;25.306;2023-02-01T06:03:52;3.90;;;2.50;;
67715;SDS011;54508;43.238;25.306;2023-02-01T06:06:18;2.73;;;2.07;;
67715;SDS011;54508;43.238;25.306;2023-02-01T06:08:44;2.67;;;1.85;;
67715;SDS011;54508;43.238;25.306;2023-02-01T06:11:10;3.70;;;2.17;;
67715;SDS011;54508;43.238;25.306;2023-02-01T06:13:35;4.23;;;2.70;;
67715;SDS011;54508;43.238;25.306;2023-02-01T06:16:03;5.68;;;2.70;;
67715;SDS011;54508;43.238;25.306;2023-02-01T06:18:31;8.75;;;2.70;;
67715;SDS011;54508;43.238;25.306;2023-02-01T06:20:58;4.72;;;2.78;;
67715;SDS011;54508;43.238;25.306;2023-02-01T06:23:30;3.83;;;2.45;;
67715;SDS011;54508;43.238;25.306;2023-02-01T06:26:03;6.68;;;2.70;;
67715;SDS011;54508;43.238;25.306;2023-02-01T06:28:31;5.03;;;2.38;;
67715;SDS011;54508;43.238;25.306;2023-02-01T06:30:57;4.22;;;2.40;;
67715;SDS011;54508;43.238;25.306;2023-02-01T06:33:23;4.05;;;2.72;;
67715;SDS011;54508;43.238;25.306;2023-02-01T06:35:56;4.82;;;3.22;;
67715;SDS011;54508;43.238;25.306;2023-02-01T06:38:23;7.88;;;2.50;;
67715;SDS011;54508;43.238;25.306;2023-02-01T06:40:52;8.27;;;3.60;;
67715;SDS011;54508;43.238;25.306;2023-02-01T06:43:18;13.75;;;3.60;;
67715;SDS011;54508;43.238;25.306;2023-02-01T06:45:44;9.63;;;3.93;;
67715;SDS011;54508;43.238;25.306;2023-02-01T06:48:09;7.03;;;3.07;;
67715;SDS011;54508;43.238;25.306;2023-02-01T06:50:35;6.90;;;2.72;;
67715;SDS011;54508;43.238;25.306;2023-02-01T06:53:00;9.30;;;3.83;;
67715;SDS011;54508;43.238;25.306;2023-02-01T06:55:26;10.00;;;3.00;;
67715;SDS011;54508;43.238;25.306;2023-02-01T06:57:55;8.00;;;2.60;;
67715;SDS011;54508;43.238;25.306;2023-02-01T07:00:21;5.78;;;2.80;;
67715;SDS011;54508;43.238;25.306;2023-02-01T07:02:47;6.25;;;3.40;;
67715;SDS011;54508;43.238;25.306;2023-02-01T07:05:13;5.30;;;2.73;;
67715;SDS011;54508;43.238;25.306;2023-02-01T07:07:38;4.53;;;2.70;;
67715;SDS011;54508;43.238;25.306;2023-02-01T07:10:04;3.70;;;2.53;;
67715;SDS011;54508;43.238;25.306;2023-02-01T07:12:29;3.17;;;2.40;;
67715;SDS011;54508;43.238;25.306;2023-02-01T07:14:55;3.83;;;2.33;;
67715;SDS011;54508;43.238;25.306;2023-02-01T07:17:21;7.15;;;2.38;;
67715;SDS011;54508;43.238;25.306;2023-02-01T07:19:47;6.85;;;2.83;;
67715;SDS011;54508;43.238;25.306;2023-02-01T07:22:13;4.37;;;2.60;;
67715;SDS011;54508;43.238;25.306;2023-02-01T07:24:41;6.60;;;2.92;;
67715;SDS011;54508;43.238;25.306;2023-02-01T07:27:07;5.47;;;2.70;;
67715;SDS011;54508;43.238;25.306;2023-02-01T07:29:32;7.60;;;2.70;;
67715;SDS011;54508;43.238;25.306;2023-02-01T07:31:58;18.80;;;3.57;;
67715;SDS011;54508;43.238;25.306;2023-02-01T07:34:23;5.63;;;3.03;;
67715;SDS011;54508;43.238;25.306;2023-02-01T07:36:49;8.30;;;2.75;;
67715;SDS011;54508;43.238;25.306;2023-02-01T07:39:14;4.33;;;2.50;;
67715;SDS011;54508;43.238;25.306;2023-02-01T07:41:40;7.40;;;2.70;;
67715;SDS011;54508;43.238;25.306;2023-02-01T07:44:05;7.23;;;2.70;;
67715;SDS011;54508;43.238;25.306;2023-02-01T07:46:31;9.75;;;2.90;;
67715;SDS011;54508;43.238;25.306;2023-02-01T07:48:56;10.52;;;2.75;;
67715;SDS011;54508;43.238;25.306;2023-02-01T07:51:21;5.53;;;3.00;;
67715;SDS011;54508;43.238;25.306;2023-02-01T07:53:47;3.60;;;2.67;;
67715;SDS011;54508;43.238;25.306;2023-02-01T07:56:14;5.37;;;2.90;;
67715;SDS011;54508;43.238;25.306;2023-02-01T07:58:40;5.13;;;2.58;;
67715;SDS011;54508;43.238;25.306;2023-02-01T08:01:11;5.63;;;2.78;;
67715;SDS011;54508;43.238;25.306;2023-02-01T08:03:50;4.73;;;2.77;;
67715;SDS011;54508;43.238;25.306;2023-02-01T08:06:17;8.50;;;2.47;;
67715;SDS011;54508;43.238;25.306;2023-02-01T08:08:44;6.07;;;2.65;;
67715;SDS011;54508;43.238;25.306;2023-02-01T08:11:12;4.72;;;2.40;;
67715;SDS011;54508;43.238;25.306;2023-02-01T08:13:38;3.63;;;2.28;;
67715;SDS011;54508;43.238;25.306;2023-02-01T08:16:05;4.23;;;2.43;;
67715;SDS011;54508;43.238;25.306;2023-02-01T08:18:32;4.97;;;2.67;;
67715;SDS011;54508;43.238;25.306;2023-02-01T08:21:02;4.72;;;2.83;;
67715;SDS011;54508;43.238;25.306;2023-02-01T08:23:34;6.00;;;2.80;;
67715;SDS011;54508;43.238;25.306;2023-02-01T08:26:04;7.07;;;2.55;;
67715;SDS011;54508;43.238;25.306;2023-02-01T08:28:31;5.50;;;2.63;;
67715;SDS011;54508;43.238;25.306;2023-02-01T08:30:56;4.63;;;2.53;;
67715;SDS011;54508;43.238;25.306;2023-02-01T08:33:22;4.50;;;2.57;;
67715;SDS011;54508;43.238;25.306;2023-02-01T08:35:47;7.23;;;2.60;;
67715;SDS011;54508;43.238;25.306;2023-02-01T08:38:13;6.03;;;2.50;;
67715;SDS011;54508;43.238;25.306;2023-02-01T08:40:38;5.37;;;2.40;;
67715;SDS011;54508;43.238;25.306;2023-02-01T08:43:06;7.25;;;2.63;;
67715;SDS011;54508;43.238;25.306;2023-02-01T08:45:32;5.87;;;2.40;;
67715;SDS011;54508;43.238;25.306;2023-02-01T08:47:58;4.60;;;2.25;;
67715;SDS011;54508;43.238;25.306;2023-02-01T08:50:24;6.50;;;2.60;;
67715;SDS011;54508;43.238;25.306;2023-02-01T08:52:51;7.15;;;2.50;;
67715;SDS011;54508;43.238;25.306;2023-02-01T08:55:17;4.33;;;2.40;;
67715;SDS011;54508;43.238;25.306;2023-02-01T08:57:43;6.25;;;2.33;;
67715;SDS011;54508;43.238;25.306;2023-02-01T09:00:10;8.93;;;2.60;;
67715;SDS011;54508;43.238;25.306;2023-02-01T09:02:37;7.75;;;2.35;;
67715;SDS011;54508;43.238;25.306;2023-02-01T09:05:03;5.55;;;2.75;;
67715;SDS011;54508;43.238;25.306;2023-02-01T09:07:29;4.27;;;2.27;;
67715;SDS011;54508;43.238;25.306;2023-02-01T09:09:55;5.85;;;2.70;;
67715;SDS011;54508;43.238;25.306;2023-02-01T09:12:21;4.75;;;2.58;;
67715;SDS011;54508;43.238;25.306;2023-02-01T09:14:47;4.93;;;2.20;;
67715;SDS011;54508;43.238;25.306;2023-02-01T09:17:13;4.55;;;2.45;;
67715;SDS011;54508;43.238;25.306;2023-02-01T09:19:39;7.00;;;2.70;;
67715;SDS011;54508;43.238;25.306;2023-02-01T09:22:04;7.88;;;3.00;;
67715;SDS011;54508;43.238;25.306;2023-02-01T09:24:30;4.20;;;2.23;;
67715;SDS011;54508;43.238;25.306;2023-02-01T09:26:55;4.87;;;2.53;;
67715;SDS011;54508;43.238;25.306;2023-02-01T09:29:21;6.15;;;2.53;;
67715;SDS011;54508;43.238;25.306;2023-02-01T09:31:46;5.10;;;2.72;;
67715;SDS011;54508;43.238;25.306;2023-02-01T09:34:12;3.93;;;2.43;;
67715;SDS011;54508;43.238;25.306;2023-02-01T09:36:37;8.20;;;2.90;;
67715;SDS011;54508;43.238;25.306;2023-02-01T09:39:03;5.30;;;2.70;;
67715;SDS011;54508;43.238;25.306;2023-02-01T09:46:53;4.22;;;2.42;;
67715;SDS011;54508;43.238;25.306;2023-02-01T09:49:27;5.15;;;2.30;;
67715;SDS011;54508;43.238;25.306;2023-02-01T09:51:54;4.47;;;2.40;;
67715;SDS011;54508;43.238;25.306;2023-02-01T09:54:22;4.95;;;2.33;;
67715;SDS011;54508;43.238;25.306;2023-02-01T09:56:52;4.88;;;2.40;;
67715;SDS011;54508;43.238;25.306;2023-02-01T09:59:26;7.05;;;2.80;;
67715;SDS011;54508;43.238;25.306;2023-02-01T10:01:55;4.35;;;2.50;;
67715;SDS011;54508;43.238;25.306;2023-02-01T10:04:21;4.70;;;2.75;;
67715;SDS011;54508;43.238;25.306;2023-02-01T10:31:18;5.63;;;2.30;;
67715;SDS011;54508;43.238;25.306;2023-02-01T10:38:58;6.78;;;2.53;;
67715;SDS011;54508;43.238;25.306;2023-02-01T10:41:24;8.27;;;2.80;;
67715;SDS011;54508;43.238;25.306;2023-02-01T10:43:56;3.67;;;2.35;;
67715;SDS011;54508;43.238;25.306;2023-02-01T10:46:24;11.55;;;4.15;;
67715;SDS011;54508;43.238;25.306;2023-02-01T10:48:50;5.25;;;2.90;;
67715;SDS011;54508;43.238;25.306;2023-02-01T10:51:26;6.70;;;2.45;;
67715;SDS011;54508;43.238;25.306;2023-02-01T10:53:58;3.60;;;2.65;;
67715;SDS011;54508;43.238;25.306;2023-02-01T10:56:27;3.40;;;2.20;;
67715;SDS011;54508;43.238;25.306;2023-02-01T10:59:06;9.03;;;2.40;;
67715;SDS011;54508;43.238;25.306;2023-02-01T11:01:42;6.47;;;2.38;;
67715;SDS011;54508;43.238;25.306;2023-02-01T11:04:10;9.07;;;2.85;;
67715;SDS011;54508;43.238;25.306;2023-02-01T11:11:33;3.90;;;2.25;;
67715;SDS011;54508;43.238;25.306;2023-02-01T11:17:33;5.05;;;2.35;;
67715;SDS011;54508;43.238;25.306;2023-02-01T11:19:44;4.07;;;2.67;;
67715;SDS011;54508;43.238;25.306;2023-02-01T11:22:10;4.40;;;2.53;;
67715;SDS011;54508;43.238;25.306;2023-02-01T11:24:37;4.60;;;2.35;;
67715;SDS011;54508;43.238;25.306;2023-02-01T11:27:06;6.72;;;2.97;;
67715;SDS011;54508;43.238;25.306;2023-02-01T11:29:39;5.38;;;3.00;;
67715;SDS011;54508;43.238;25.306;2023-02-01T11:32:07;5.10;;;2.88;;
67715;SDS011;54508;43.238;25.306;2023-02-01T11:34:41;7.93;;;3.30;;
67715;SDS011;54508;43.238;25.306;2023-02-01T11:37:19;6.30;;;3.42;;
67715;SDS011;54508;43.238;25.306;2023-02-01T11:39:57;8.82;;;4.13;;
67715;SDS011;54508;43.238;25.306;2023-02-01T11:42:24;7.43;;;4.22;;
67715;SDS011;54508;43.238;25.306;2023-02-01T11:44:50;9.23;;;4.88;;
67715;SDS011;54508;43.238;25.306;2023-02-01T11:49:46;9.15;;;5.68;;
67715;SDS011;54508;43.238;25.306;2023-02-01T11:57:50;13.57;;;9.68;;
67715;SDS011;54508;43.238;25.306;2023-02-01T12:09:13;19.75;;;11.93;;
67715;SDS011;54508;43.238;25.306;2023-02-01T12:31:51;68.82;;;24.52;;
67715;SDS011;54508;43.238;25.306;2023-02-01T12:45:46;64.80;;;23.50;;
67715;SDS011;54508;43.238;25.306;2023-02-01T12:51:17;56.10;;;21.10;;
67715;SDS011;54508;43.238;25.306;2023-02-01T12:56:11;52.77;;;19.87;;
67715;SDS011;54508;43.238;25.306;2023-02-01T13:01:25;44.42;;;17.08;;
67715;SDS011;54508;43.238;25.306;2023-02-01T13:06:47;30.40;;;14.97;;
67715;SDS011;54508;43.238;25.306;2023-02-01T13:09:53;36.58;;;15.20;;
67715;SDS011;54508;43.238;25.306;2023-02-01T13:12:44;33.15;;;14.95;;
67715;SDS011;54508;43.238;25.306;2023-02-01T13:15:33;27.98;;;12.57;;
67715;SDS011;54508;43.238;25.306;2023-02-01T13:18:04;31.13;;;13.15;;
67715;SDS011;54508;43.238;25.306;2023-02-01T13:20:42;25.00;;;12.00;;
67715;SDS011;54508;43.238;25.306;2023-02-01T13:23:28;23.08;;;10.80;;
67715;SDS011;54508;43.238;25.306;2023-02-01T13:25:55;24.52;;;11.23;;
67715;SDS011;54508;43.238;25.306;2023-02-01T13:28:28;19.90;;;10.43;;
67715;SDS011;54508;43.238;25.306;2023-02-01T13:31:24;22.80;;;10.38;;
67715;SDS011;54508;43.238;25.306;2023-02-01T13:42:05;27.63;;;12.83;;
67715;SDS011;54508;43.238;25.306;2023-02-01T13:44:52;26.17;;;11.35;;
67715;SDS011;54508;43.238;25.306;2023-02-01T13:47:28;22.95;;;11.27;;
67715;SDS011;54508;43.238;25.306;2023-02-01T13:50:16;25.58;;;10.60;;
67715;SDS011;54508;43.238;25.306;2023-02-01T13:52:56;20.98;;;10.23;;
67715;SDS011;54508;43.238;25.306;2023-02-01T14:08:10;26.10;;;13.55;;
67715;SDS011;54508;43.238;25.306;2023-02-01T14:10:55;29.47;;;15.20;;
67715;SDS011;54508;43.238;25.306;2023-02-01T14:24:24;21.88;;;13.82;;
67715;SDS011;54508;43.238;25.306;2023-02-01T14:26:42;26.95;;;14.65;;
67715;SDS011;54508;43.238;25.306;2023-02-01T14:31:42;21.02;;;12.73;;
67715;SDS011;54508;43.238;25.306;2023-02-01T14:37:01;21.20;;;12.57;;
67715;SDS011;54508;43.238;25.306;2023-02-01T14:39:41;22.38;;;12.00;;
67715;SDS011;54508;43.238;25.306;2023-02-01T15:00:56;14.35;;;9.07;;
67715;SDS011;54508;43.238;25.306;2023-02-01T15:06:18;19.50;;;9.40;;
67715;SDS011;54508;43.238;25.306;2023-02-01T15:08:51;15.95;;;8.82;;
67715;SDS011;54508;43.238;25.306;2023-02-01T15:11:19;19.42;;;8.90;;
67715;SDS011;54508;43.238;25.306;2023-02-01T15:13:49;14.50;;;9.10;;
67715;SDS011;54508;43.238;25.306;2023-02-01T15:16:16;20.17;;;8.88;;
67715;SDS011;54508;43.238;25.306;2023-02-01T15:18:42;14.60;;;8.55;;
67715;SDS011;54508;43.238;25.306;2023-02-01T15:21:21;15.97;;;8.17;;
67715;SDS011;54508;43.238;25.306;2023-02-01T15:23:47;16.00;;;8.93;;
67715;SDS011;54508;43.238;25.306;2023-02-01T15:26:34;16.20;;;8.48;;
67715;SDS011;54508;43.238;25.306;2023-02-01T15:28:59;20.63;;;9.03;;
67715;SDS011;54508;43.238;25.306;2023-02-01T15:31:37;21.52;;;9.60;;
67715;SDS011;54508;43.238;25.306;2023-02-01T15:34:05;19.20;;;9.77;;
67715;SDS011;54508;43.238;25.306;2023-02-01T15:36:31;15.15;;;8.75;;
67715;SDS011;54508;43.238;25.306;2023-02-01T15:41:59;17.02;;;9.95;;
67715;SDS011;54508;43.238;25.306;2023-02-01T15:46:58;14.10;;;7.97;;
67715;SDS011;54508;43.238;25.306;2023-02-01T15:49:26;12.05;;;8.20;;
67715;SDS011;54508;43.238;25.306;2023-02-01T15:51:54;14.38;;;7.45;;
67715;SDS011;54508;43.238;25.306;2023-02-01T15:54:28;12.98;;;7.05;;
67715;SDS011;54508;43.238;25.306;2023-02-01T15:56:56;21.57;;;13.00;;
67715;SDS011;54508;43.238;25.306;2023-02-01T15:59:43;22.08;;;10.43;;
67715;SDS011;54508;43.238;25.306;2023-02-01T16:10:41;16.17;;;8.30;;
67715;SDS011;54508;43.238;25.306;2023-02-01T16:13:07;17.50;;;9.52;;
67715;SDS011;54508;43.238;25.306;2023-02-01T16:15:33;19.10;;;10.07;;
67715;SDS011;54508;43.238;25.306;2023-02-01T16:17:59;18.53;;;11.17;;
67715;SDS011;54508;43.238;25.306;2023-02-01T16:20:24;20.10;;;12.30;;
67715;SDS011;54508;43.238;25.306;2023-02-01T16:22:50;60.40;;;32.42;;
67715;SDS011;54508;43.238;25.306;2023-02-01T16:25:15;59.17;;;26.92;;
67715;SDS011;54508;43.238;25.306;2023-02-01T16:27:40;41.77;;;23.03;;
67715;SDS011;54508;43.238;25.306;2023-02-01T16:30:06;47.80;;;22.83;;
67715;SDS011;54508;43.238;25.306;2023-02-01T16:32:35;40.28;;;23.45;;
67715;SDS011;54508;43.238;25.306;2023-02-01T16:35:03;37.25;;;21.95;;
67715;SDS011;54508;43.238;25.306;2023-02-01T16:37:30;38.15;;;21.27;;
67715;SDS011;54508;43.238;25.306;2023-02-01T16:39:57;34.40;;;20.00;;
67715;SDS011;54508;43.238;25.306;2023-02-01T16:42:22;34.63;;;19.60;;
67715;SDS011;54508;43.238;25.306;2023-02-01T16:44:48;34.53;;;18.63;;
67715;SDS011;54508;43.238;25.306;2023-02-01T16:49:43;33.17;;;18.55;;
67715;SDS011;54508;43.238;25.306;2023-02-01T16:52:21;33.72;;;18.85;;
67715;SDS011;54508;43.238;25.306;2023-02-01T16:54:49;31.55;;;17.50;;
67715;SDS011;54508;43.238;25.306;2023-02-01T16:57:15;27.30;;;16.87;;
67715;SDS011;54508;43.238;25.306;2023-02-01T16:59:42;27.38;;;17.60;;
67715;SDS011;54508;43.238;25.306;2023-02-01T17:02:13;26.08;;;16.85;;
67715;SDS011;54508;43.238;25.306;2023-02-01T17:04:40;28.10;;;17.08;;
67715;SDS011;54508;43.238;25.306;2023-02-01T17:07:06;28.90;;;16.83;;
67715;SDS011;54508;43.238;25.306;2023-02-01T17:09:37;28.25;;;15.25;;
67715;SDS011;54508;43.238;25.306;2023-02-01T17:12:03;24.07;;;15.53;;
67715;SDS011;54508;43.238;25.306;2023-02-01T17:14:30;26.50;;;16.65;;
67715;SDS011;54508;43.238;25.306;2023-02-01T17:16:56;26.40;;;15.90;;
67715;SDS011;54508;43.238;25.306;2023-02-01T17:19:22;25.70;;;14.77;;
67715;SDS011;54508;43.238;25.306;2023-02-01T17:21:54;23.55;;;15.43;;
67715;SDS011;54508;43.238;25.306;2023-02-01T17:24:24;20.98;;;13.55;;
67715;SDS011;54508;43.238;25.306;2023-02-01T17:26:51;21.80;;;13.77;;
67715;SDS011;54508;43.238;25.306;2023-02-01T17:29:17;19.30;;;13.63;;
67715;SDS011;54508;43.238;25.306;2023-02-01T17:31:43;23.30;;;13.15;;
67715;SDS011;54508;43.238;25.306;2023-02-01T17:34:12;20.87;;;12.63;;
67715;SDS011;54508;43.238;25.306;2023-02-01T17:36:43;20.52;;;13.18;;
67715;SDS011;54508;43.238;25.306;2023-02-01T17:39:09;18.83;;;11.80;;
67715;SDS011;54508;43.238;25.306;2023-02-01T17:41:55;20.05;;;11.80;;
67715;SDS011;54508;43.238;25.306;2023-02-01T17:44:21;16.23;;;10.70;;
67715;SDS011;54508;43.238;25.306;2023-02-01T17:46:46;16.07;;;10.90;;
67715;SDS011;54508;43.238;25.306;2023-02-01T17:49:12;17.97;;;11.53;;
67715;SDS011;54508;43.238;25.306;2023-02-01T17:51:37;16.13;;;10.40;;
67715;SDS011;54508;43.238;25.306;2023-02-01T17:54:07;14.67;;;10.17;;
67715;SDS011;54508;43.238;25.306;2023-02-01T17:56:36;16.83;;;10.30;;
67715;SDS011;54508;43.238;25.306;2023-02-01T17:59:01;15.03;;;10.17;;
67715;SDS011;54508;43.238;25.306;2023-02-01T18:01:27;15.93;;;10.13;;
67715;SDS011;54508;43.238;25.306;2023-02-01T18:03:52;15.07;;;9.93;;
67715;SDS011;54508;43.238;25.306;2023-02-01T18:06:19;14.63;;;9.83;;